createdAt,value
2022-12-25T00:00:57.220Z,8.1
2022-12-25T00:01:57.011Z,8.1
2022-12-25T00:02:57.100Z,8.1
2022-12-25T00:03:57.188Z,8.1
2022-12-25T00:04:57.026Z,8.1
2022-12-25T00:05:57.004Z,8.1
2022-12-25T00:06:57.033Z,8
2022-12-25T00:07:57.030Z,8
2022-12-25T00:08:57.009Z,8
2022-12-25T00:09:57.002Z,8
2022-12-25T00:10:57.026Z,8
2022-12-25T00:11:56.999Z,8
2022-12-25T00:12:57.007Z,8
2022-12-25T00:13:57.038Z,7.9
2022-12-25T00:14:57.022Z,7.9
2022-12-25T00:15:57.029Z,7.9
2022-12-25T00:16:56.995Z,7.8
2022-12-25T00:17:57.047Z,7.8
2022-12-25T00:18:57.070Z,7.8
2022-12-25T00:19:57.036Z,7.8
2022-12-25T00:20:57.037Z,7.7
2022-12-25T00:21:57.056Z,7.7
2022-12-25T00:22:57.058Z,7.7
2022-12-25T00:23:57.066Z,7.6
2022-12-25T00:24:57.045Z,7.6
2022-12-25T00:25:57.053Z,7.6
2022-12-25T00:26:57.039Z,7.5
2022-12-25T00:27:57.065Z,7.5
2022-12-25T00:28:57.072Z,7.5
2022-12-25T00:29:57.070Z,7.5
2022-12-25T00:30:57.089Z,7.5
2022-12-25T00:31:57.082Z,7.5
2022-12-25T00:32:57.081Z,7.5
2022-12-25T00:33:57.080Z,7.6
2022-12-25T00:34:57.087Z,7.6
2022-12-25T00:35:57.067Z,7.6
2022-12-25T00:36:57.085Z,7.6
2022-12-25T00:37:57.097Z,7.6
2022-12-25T00:38:57.098Z,7.6
2022-12-25T00:39:57.160Z,7.6
2022-12-25T00:40:57.136Z,7.7
2022-12-25T00:41:57.128Z,7.7
2022-12-25T00:42:57.494Z,7.7
2022-12-25T00:43:57.122Z,7.6
2022-12-25T00:44:57.132Z,7.6
2022-12-25T00:45:57.222Z,7.6
2022-12-25T00:46:57.205Z,7.4
2022-12-25T00:47:57.171Z,7.4
2022-12-25T00:48:57.163Z,7.4
2022-12-25T00:49:57.144Z,7.4
2022-12-25T00:50:57.178Z,7.4
2022-12-25T00:51:57.165Z,7.4
2022-12-25T00:52:57.148Z,7.4
2022-12-25T00:53:57.157Z,7.4
2022-12-25T00:54:57.168Z,7.4
2022-12-25T00:55:57.192Z,7.4
2022-12-25T00:56:57.150Z,7.4
2022-12-25T00:57:57.183Z,7.4
2022-12-25T00:58:57.153Z,7.4
2022-12-25T00:59:57.159Z,7.4
2022-12-25T01:00:57.281Z,7.6
2022-12-25T01:01:57.264Z,7.6
2022-12-25T01:02:57.386Z,7.6
2022-12-25T01:03:57.186Z,7.8
2022-12-25T01:04:57.234Z,7.8
2022-12-25T01:05:57.218Z,7.8
2022-12-25T01:06:57.202Z,7.9
2022-12-25T01:07:57.180Z,7.9
2022-12-25T01:08:57.189Z,7.9
2022-12-25T01:09:57.201Z,7.9
2022-12-25T01:10:57.180Z,7.9
2022-12-25T01:11:57.202Z,7.9
2022-12-25T01:12:57.211Z,7.9
2022-12-25T01:13:57.185Z,7.9
2022-12-25T01:14:57.204Z,7.9
2022-12-25T01:15:57.305Z,7.9
2022-12-25T01:16:57.269Z,7.8
2022-12-25T01:17:57.229Z,7.8
2022-12-25T01:18:57.238Z,7.8
2022-12-25T01:19:57.218Z,7.8
2022-12-25T01:20:57.244Z,7.7
2022-12-25T01:21:57.270Z,7.7
2022-12-25T01:22:57.242Z,7.7
2022-12-25T01:23:57.236Z,7.6
2022-12-25T01:24:57.221Z,7.6
2022-12-25T01:25:57.278Z,7.6
2022-12-25T01:26:57.343Z,7.6
2022-12-25T01:27:57.342Z,7.6
2022-12-25T01:28:57.275Z,7.6
2022-12-25T01:29:57.295Z,7.6
2022-12-25T01:30:57.303Z,7.7
2022-12-25T01:31:57.333Z,7.7
2022-12-25T01:32:57.314Z,7.7
2022-12-25T01:33:57.314Z,7.9
2022-12-25T01:34:57.315Z,7.9
2022-12-25T01:35:57.311Z,7.9
2022-12-25T01:36:57.310Z,7.9
2022-12-25T01:37:57.321Z,8
2022-12-25T01:38:57.360Z,8
2022-12-25T01:39:57.313Z,8
2022-12-25T01:40:57.329Z,7.9
2022-12-25T01:41:57.304Z,7.9
2022-12-25T01:42:57.298Z,7.9
2022-12-25T01:43:57.338Z,7.8
2022-12-25T01:44:57.305Z,7.8
2022-12-25T01:45:57.381Z,7.8
2022-12-25T01:46:57.361Z,7.8
2022-12-25T01:47:57.356Z,7.8
2022-12-25T01:48:57.351Z,7.8
2022-12-25T01:49:57.349Z,7.8
2022-12-25T01:50:57.353Z,7.7
2022-12-25T01:51:57.345Z,7.7
2022-12-25T01:52:57.343Z,7.7
2022-12-25T01:53:57.378Z,7.6
2022-12-25T01:54:57.373Z,7.6
2022-12-25T01:55:57.364Z,7.6
2022-12-25T01:56:57.364Z,7.6
2022-12-25T01:57:57.352Z,7.5
2022-12-25T01:58:57.342Z,7.5
2022-12-25T01:59:57.392Z,7.5
2022-12-25T02:00:57.395Z,7.4
2022-12-25T02:01:57.493Z,7.4
2022-12-25T02:02:57.524Z,7.4
2022-12-25T02:03:57.358Z,7.3
2022-12-25T02:04:57.370Z,7.3
2022-12-25T02:05:57.367Z,7.3
2022-12-25T02:06:57.370Z,7.3
2022-12-25T02:07:57.368Z,7.2
2022-12-25T02:08:57.369Z,7.2
2022-12-25T02:09:57.392Z,7.2
2022-12-25T02:10:57.373Z,7.3
2022-12-25T02:11:57.398Z,7.3
2022-12-25T02:12:57.398Z,7.3
2022-12-25T02:13:57.405Z,7.5
2022-12-25T02:15:03.053Z,7.5
2022-12-25T02:15:57.457Z,7.5
2022-12-25T02:16:58.937Z,7.5
2022-12-25T02:17:57.437Z,7.7
2022-12-25T02:18:57.434Z,7.7
2022-12-25T02:19:57.453Z,7.7
2022-12-25T02:20:57.441Z,7.8
2022-12-25T02:21:57.508Z,7.8
2022-12-25T02:22:57.488Z,7.8
2022-12-25T02:23:57.473Z,7.8
2022-12-25T02:24:57.469Z,7.6
2022-12-25T02:25:57.465Z,7.6
2022-12-25T02:26:57.496Z,7.6
2022-12-25T02:27:57.483Z,7.4
2022-12-25T02:28:57.484Z,7.4
2022-12-25T02:29:57.455Z,7.4
2022-12-25T02:30:57.468Z,7.3
2022-12-25T02:31:57.593Z,7.3
2022-12-25T02:32:57.480Z,7.3
2022-12-25T02:33:57.493Z,7.3
2022-12-25T02:34:57.470Z,7.4
2022-12-25T02:35:57.466Z,7.4
2022-12-25T02:36:57.480Z,7.4
2022-12-25T02:37:57.505Z,7.6
2022-12-25T02:38:57.473Z,7.6
2022-12-25T02:39:57.467Z,7.6
2022-12-25T02:40:57.486Z,7.9
2022-12-25T02:41:57.467Z,7.9
2022-12-25T02:42:57.486Z,7.9
2022-12-25T02:43:57.539Z,7.9
2022-12-25T02:44:57.507Z,7.9
2022-12-25T02:45:57.562Z,7.9
2022-12-25T02:46:57.533Z,7.9
2022-12-25T02:47:57.600Z,7.6
2022-12-25T02:48:57.521Z,7.6
2022-12-25T02:49:57.521Z,7.6
2022-12-25T02:50:57.498Z,7.4
2022-12-25T02:51:57.489Z,7.4
2022-12-25T02:52:57.519Z,7.4
2022-12-25T02:53:57.522Z,7.4
2022-12-25T02:54:57.524Z,7.2
2022-12-25T02:55:57.508Z,7.2
2022-12-25T02:56:57.524Z,7.2
2022-12-25T02:57:57.565Z,7.1
2022-12-25T02:58:57.549Z,7.1
2022-12-25T02:59:57.510Z,7.1
2022-12-25T03:00:57.532Z,7.1
2022-12-25T03:01:57.655Z,7.1
2022-12-25T03:02:57.572Z,7.1
2022-12-25T03:03:57.541Z,7.1
2022-12-25T03:04:57.529Z,7
2022-12-25T03:05:57.534Z,7
2022-12-25T03:06:57.600Z,7
2022-12-25T03:07:57.513Z,6.9
2022-12-25T03:08:57.523Z,6.9
2022-12-25T03:09:57.530Z,6.9
2022-12-25T03:10:57.536Z,6.8
2022-12-25T03:11:57.542Z,6.8
2022-12-25T03:12:57.557Z,6.8
2022-12-25T03:13:57.528Z,6.8
2022-12-25T03:14:57.535Z,6.8
2022-12-25T03:15:57.547Z,6.8
2022-12-25T03:16:57.606Z,6.8
2022-12-25T03:17:57.550Z,6.8
2022-12-25T03:18:57.550Z,6.8
2022-12-25T03:19:57.610Z,6.8
2022-12-25T03:20:57.543Z,6.8
2022-12-25T03:21:57.524Z,6.8
2022-12-25T03:22:57.539Z,6.8
2022-12-25T03:23:57.529Z,6.8
2022-12-25T03:24:57.553Z,6.8
2022-12-25T03:25:57.555Z,6.8
2022-12-25T03:26:57.653Z,6.8
2022-12-25T03:27:57.571Z,6.8
2022-12-25T03:28:57.555Z,6.8
2022-12-25T03:29:57.561Z,6.8
2022-12-25T03:30:57.591Z,6.9
2022-12-25T03:31:57.587Z,6.9
2022-12-25T03:32:57.618Z,6.9
2022-12-25T03:33:57.567Z,6.9
2022-12-25T03:34:57.559Z,7
2022-12-25T03:35:57.583Z,7
2022-12-25T03:36:57.568Z,7
2022-12-25T03:37:57.623Z,7
2022-12-25T03:38:57.569Z,7
2022-12-25T03:39:57.618Z,7
2022-12-25T03:40:57.643Z,7.1
2022-12-25T03:41:57.587Z,7.1
2022-12-25T03:42:57.615Z,7.1
2022-12-25T03:43:57.615Z,7.1
2022-12-25T03:44:57.616Z,7.1
2022-12-25T03:45:57.628Z,7.1
2022-12-25T03:46:57.613Z,7.1
2022-12-25T03:47:57.712Z,7.1
2022-12-25T03:48:57.675Z,7.1
2022-12-25T03:49:57.686Z,7.1
2022-12-25T03:50:57.679Z,7.2
2022-12-25T03:51:57.714Z,7.2
2022-12-25T03:52:57.678Z,7.2
2022-12-25T03:53:57.697Z,7.2
2022-12-25T03:54:57.674Z,7.3
2022-12-25T03:55:57.681Z,7.3
2022-12-25T03:56:57.716Z,7.3
2022-12-25T03:57:57.750Z,7.3
2022-12-25T03:58:57.705Z,7.3
2022-12-25T03:59:57.695Z,7.3
2022-12-25T04:00:57.703Z,7.1
2022-12-25T04:01:57.720Z,7.1
2022-12-25T04:02:57.769Z,7.1
2022-12-25T04:03:57.714Z,7.1
2022-12-25T04:04:57.684Z,7
2022-12-25T04:05:57.728Z,7
2022-12-25T04:06:57.678Z,7
2022-12-25T04:07:57.726Z,6.9
2022-12-25T04:08:57.699Z,6.9
2022-12-25T04:09:57.711Z,6.9
2022-12-25T04:10:57.679Z,7
2022-12-25T04:12:02.384Z,7
2022-12-25T04:12:57.766Z,7
2022-12-25T04:13:57.706Z,7
2022-12-25T04:14:57.712Z,7
2022-12-25T04:15:57.746Z,7
2022-12-25T04:16:57.742Z,7
2022-12-25T04:17:57.721Z,6.9
2022-12-25T04:18:57.716Z,6.9
2022-12-25T04:19:57.698Z,6.9
2022-12-25T04:20:57.707Z,6.7
2022-12-25T04:21:57.692Z,6.7
2022-12-25T04:22:57.710Z,6.7
2022-12-25T04:23:57.720Z,6.7
2022-12-25T04:24:57.697Z,6.5
2022-12-25T04:25:57.705Z,6.5
2022-12-25T04:26:57.723Z,6.5
2022-12-25T04:27:57.730Z,6.4
2022-12-25T04:28:57.708Z,6.4
2022-12-25T04:29:57.679Z,6.4
2022-12-25T04:30:57.782Z,6.4
2022-12-25T04:31:57.729Z,6.2
2022-12-25T04:32:57.722Z,6.2
2022-12-25T04:33:57.711Z,6.2
2022-12-25T04:34:57.710Z,6
2022-12-25T04:35:57.692Z,6
2022-12-25T04:36:57.717Z,6
2022-12-25T04:37:57.728Z,5.9
2022-12-25T04:38:57.722Z,5.9
2022-12-25T04:39:57.780Z,5.9
2022-12-25T04:40:57.748Z,5.9
2022-12-25T04:41:57.761Z,5.9
2022-12-25T04:42:57.780Z,5.9
2022-12-25T04:43:57.731Z,5.9
2022-12-25T04:44:57.741Z,5.9
2022-12-25T04:45:57.798Z,5.9
2022-12-25T04:46:57.813Z,5.9
2022-12-25T04:47:57.805Z,5.9
2022-12-25T04:48:57.822Z,5.9
2022-12-25T04:49:57.810Z,5.9
2022-12-25T04:50:57.813Z,5.9
2022-12-25T04:51:57.783Z,5.9
2022-12-25T04:52:57.815Z,5.9
2022-12-25T04:53:57.828Z,5.9
2022-12-25T04:54:57.815Z,5.7
2022-12-25T04:55:57.857Z,5.7
2022-12-25T04:56:57.794Z,5.7
2022-12-25T04:57:57.823Z,5.4
2022-12-25T04:58:57.787Z,5.4
2022-12-25T04:59:57.793Z,5.4
2022-12-25T05:00:57.803Z,5.4
2022-12-25T05:01:57.885Z,5.2
2022-12-25T05:02:57.976Z,5.2
2022-12-25T05:03:57.836Z,5.2
2022-12-25T05:04:57.805Z,5.1
2022-12-25T05:05:57.808Z,5.1
2022-12-25T05:06:57.815Z,5.1
2022-12-25T05:07:57.816Z,5.2
2022-12-25T05:08:57.792Z,5.2
2022-12-25T05:09:57.814Z,5.2
2022-12-25T05:10:57.837Z,5.2
2022-12-25T05:11:57.858Z,5.3
2022-12-25T05:12:57.842Z,5.3
2022-12-25T05:13:57.868Z,5.3
2022-12-25T05:14:57.866Z,5.2
2022-12-25T05:15:57.901Z,5.2
2022-12-25T05:16:57.920Z,5.2
2022-12-25T05:17:57.904Z,5.1
2022-12-25T05:18:57.873Z,5.1
2022-12-25T05:19:57.885Z,5.1
2022-12-25T05:20:57.867Z,5.1
2022-12-25T05:21:57.901Z,5
2022-12-25T05:22:57.900Z,5
2022-12-25T05:23:57.855Z,5
2022-12-25T05:24:57.876Z,5
2022-12-25T05:25:57.895Z,5
2022-12-25T05:26:57.901Z,5
2022-12-25T05:27:57.919Z,5
2022-12-25T05:28:57.900Z,5
2022-12-25T05:29:57.888Z,5
2022-12-25T05:30:57.901Z,5
2022-12-25T05:31:57.864Z,5
2022-12-25T05:32:57.928Z,5
2022-12-25T05:33:57.895Z,5
2022-12-25T05:34:57.885Z,5
2022-12-25T05:35:57.907Z,5
2022-12-25T05:36:57.905Z,5
2022-12-25T05:37:57.942Z,5
2022-12-25T05:38:57.917Z,5
2022-12-25T05:39:57.919Z,5
2022-12-25T05:40:57.917Z,5
2022-12-25T05:41:57.961Z,5.1
2022-12-25T05:42:58.146Z,5.1
2022-12-25T05:43:57.994Z,5.1
2022-12-25T05:44:57.936Z,5.3
2022-12-25T05:45:57.978Z,5.3
2022-12-25T05:46:58.005Z,5.3
2022-12-25T05:47:57.975Z,5.4
2022-12-25T05:48:58.003Z,5.4
2022-12-25T05:49:57.977Z,5.4
2022-12-25T05:50:58.006Z,5.4
2022-12-25T05:51:58.017Z,5.5
2022-12-25T05:53:01.477Z,5.5
2022-12-25T05:53:57.994Z,5.5
2022-12-25T05:54:57.992Z,5.6
2022-12-25T05:55:57.985Z,5.6
2022-12-25T05:56:57.975Z,5.6
2022-12-25T05:57:57.967Z,5.7
2022-12-25T05:58:57.991Z,5.7
2022-12-25T05:59:58.039Z,5.7
2022-12-25T06:00:57.984Z,5.7
2022-12-25T06:01:58.199Z,5.7
2022-12-25T06:02:58.112Z,5.7
2022-12-25T06:03:58.077Z,5.7
2022-12-25T06:04:57.996Z,5.7
2022-12-25T06:05:57.994Z,5.7
2022-12-25T06:06:57.987Z,5.7
2022-12-25T06:07:57.990Z,5.7
2022-12-25T06:08:57.997Z,5.7
2022-12-25T06:09:57.979Z,5.7
2022-12-25T06:10:58.007Z,5.7
2022-12-25T06:11:57.989Z,5.7
2022-12-25T06:12:58.010Z,5.7
2022-12-25T06:13:58.017Z,5.7
2022-12-25T06:14:58.008Z,5.6
2022-12-25T06:15:58.075Z,5.6
2022-12-25T06:16:58.023Z,5.6
2022-12-25T06:17:58.031Z,5.6
2022-12-25T06:18:58.019Z,5.6
2022-12-25T06:19:58.041Z,5.6
2022-12-25T06:20:58.050Z,5.6
2022-12-25T06:21:58.039Z,5.5
2022-12-25T06:22:58.029Z,5.5
2022-12-25T06:23:58.094Z,5.5
2022-12-25T06:24:58.044Z,5.5
2022-12-25T06:25:58.052Z,5.5
2022-12-25T06:26:58.058Z,5.5
2022-12-25T06:27:58.077Z,5.4
2022-12-25T06:28:58.100Z,5.4
2022-12-25T06:29:58.072Z,5.4
2022-12-25T06:30:58.084Z,5.4
2022-12-25T06:31:58.196Z,5.4
2022-12-25T06:32:58.070Z,5.4
2022-12-25T06:33:58.091Z,5.4
2022-12-25T06:34:58.108Z,5.4
2022-12-25T06:35:58.070Z,5.4
2022-12-25T06:36:58.063Z,5.4
2022-12-25T06:37:58.063Z,5.4
2022-12-25T06:38:58.084Z,5.4
2022-12-25T06:39:58.061Z,5.4
2022-12-25T06:40:58.080Z,5.4
2022-12-25T06:41:58.089Z,5.4
2022-12-25T06:42:58.097Z,5.4
2022-12-25T06:43:58.101Z,5.4
2022-12-25T06:44:58.076Z,5.4
2022-12-25T06:45:58.094Z,5.4
2022-12-25T06:46:58.380Z,5.4
2022-12-25T06:47:58.118Z,5.5
2022-12-25T06:48:58.116Z,5.5
2022-12-25T06:49:58.116Z,5.5
2022-12-25T06:50:58.100Z,5.5
2022-12-25T06:51:58.098Z,5.5
2022-12-25T06:52:58.114Z,5.5
2022-12-25T06:53:58.099Z,5.5
2022-12-25T06:54:58.340Z,5.5
2022-12-25T06:55:58.079Z,5.5
2022-12-25T06:56:58.120Z,5.5
2022-12-25T06:57:58.102Z,5.4
2022-12-25T06:58:58.116Z,5.4
2022-12-25T06:59:58.311Z,5.4
2022-12-25T07:00:58.301Z,5.4
2022-12-25T07:01:58.474Z,5.4
2022-12-25T07:02:58.362Z,5.4
2022-12-25T07:03:58.261Z,5.4
2022-12-25T07:04:58.192Z,5.4
2022-12-25T07:05:58.221Z,5.4
2022-12-25T07:06:59.895Z,5.4
2022-12-25T07:07:58.197Z,5.4
2022-12-25T07:08:58.261Z,5.4
2022-12-25T07:09:58.245Z,5.4
2022-12-25T07:10:58.223Z,5.4
2022-12-25T07:11:58.209Z,5.4
2022-12-25T07:12:58.218Z,5.4
2022-12-25T07:13:58.235Z,5.4
2022-12-25T07:14:58.231Z,5.5
2022-12-25T07:15:58.314Z,5.5
2022-12-25T07:16:58.239Z,5.5
2022-12-25T07:17:58.218Z,5.5
2022-12-25T07:18:58.235Z,5.5
2022-12-25T07:19:58.611Z,5.5
2022-12-25T07:20:58.214Z,5.5
2022-12-25T07:21:58.251Z,5.5
2022-12-25T07:22:58.231Z,5.5
2022-12-25T07:23:58.257Z,5.5
2022-12-25T07:24:58.242Z,5.5
2022-12-25T07:25:58.252Z,5.5
2022-12-25T07:26:58.238Z,5.5
2022-12-25T07:27:58.240Z,5.5
2022-12-25T07:28:58.278Z,5.5
2022-12-25T07:29:58.245Z,5.5
2022-12-25T07:30:58.274Z,5.5
2022-12-25T07:31:58.283Z,5.4
2022-12-25T07:32:58.254Z,5.4
2022-12-25T07:33:58.315Z,5.4
2022-12-25T07:34:58.254Z,5.3
2022-12-25T07:35:58.292Z,5.3
2022-12-25T07:36:58.279Z,5.3
2022-12-25T07:37:58.294Z,5.3
2022-12-25T07:38:58.343Z,5.3
2022-12-25T07:39:58.267Z,5.3
2022-12-25T07:40:58.281Z,5.3
2022-12-25T07:41:58.300Z,5.3
2022-12-25T07:42:58.302Z,5.3
2022-12-25T07:43:58.291Z,5.3
2022-12-25T07:44:58.353Z,5.3
2022-12-25T07:45:58.384Z,5.3
2022-12-25T07:46:58.280Z,5.3
2022-12-25T07:48:02.819Z,5.3
2022-12-25T07:48:58.330Z,5.4
2022-12-25T07:49:58.320Z,5.4
2022-12-25T07:50:58.458Z,5.4
2022-12-25T07:51:58.347Z,5.4
2022-12-25T07:52:58.332Z,5.4
2022-12-25T07:53:58.327Z,5.4
2022-12-25T07:54:58.329Z,5.5
2022-12-25T07:55:58.344Z,5.5
2022-12-25T07:56:58.317Z,5.5
2022-12-25T07:57:58.333Z,5.5
2022-12-25T07:58:58.395Z,5.6
2022-12-25T07:59:58.326Z,5.6
2022-12-25T08:00:58.410Z,5.6
2022-12-25T08:01:58.598Z,5.6
2022-12-25T08:02:58.510Z,5.6
2022-12-25T08:03:58.412Z,5.6
2022-12-25T08:04:58.333Z,5.7
2022-12-25T08:05:58.346Z,5.7
2022-12-25T08:06:58.326Z,5.7
2022-12-25T08:07:58.453Z,5.7
2022-12-25T08:08:58.329Z,5.7
2022-12-25T08:09:58.354Z,5.7
2022-12-25T08:10:58.377Z,5.7
2022-12-25T08:11:58.349Z,5.8
2022-12-25T08:12:58.362Z,5.8
2022-12-25T08:13:58.380Z,5.8
2022-12-25T08:14:58.386Z,5.8
2022-12-25T08:15:58.400Z,5.8
2022-12-25T08:16:58.431Z,5.8
2022-12-25T08:17:58.389Z,5.8
2022-12-25T08:18:58.395Z,5.8
2022-12-25T08:19:58.391Z,5.8
2022-12-25T08:20:58.371Z,5.8
2022-12-25T08:21:58.351Z,5.9
2022-12-25T08:22:58.378Z,5.9
2022-12-25T08:23:58.439Z,5.9
2022-12-25T08:24:58.390Z,6
2022-12-25T08:26:04.156Z,6
2022-12-25T08:26:58.392Z,6
2022-12-25T08:27:58.377Z,6
2022-12-25T08:28:58.414Z,6
2022-12-25T08:29:58.382Z,6
2022-12-25T08:30:58.437Z,6
2022-12-25T08:31:58.405Z,6.1
2022-12-25T08:32:58.418Z,6.1
2022-12-25T08:33:58.448Z,6.1
2022-12-25T08:34:58.404Z,6.2
2022-12-25T08:35:58.405Z,6.2
2022-12-25T08:36:58.409Z,6.2
2022-12-25T08:37:58.435Z,6.2
2022-12-25T08:39:02.364Z,6.2
2022-12-25T08:39:58.420Z,6.2
2022-12-25T08:40:58.430Z,6.2
2022-12-25T08:41:58.417Z,6.4
2022-12-25T08:42:58.407Z,6.4
2022-12-25T08:43:58.430Z,6.4
2022-12-25T08:44:58.396Z,6.5
2022-12-25T08:45:58.423Z,6.5
2022-12-25T08:46:58.427Z,6.5
2022-12-25T08:47:58.404Z,6.5
2022-12-25T08:48:58.423Z,6.7
2022-12-25T08:49:58.418Z,6.7
2022-12-25T08:50:58.402Z,6.7
2022-12-25T08:51:58.402Z,6.9
2022-12-25T08:52:58.402Z,6.9
2022-12-25T08:53:58.426Z,6.9
2022-12-25T08:54:58.379Z,7.1
2022-12-25T08:55:58.424Z,7.1
2022-12-25T08:57:02.570Z,7.1
2022-12-25T08:57:58.397Z,7.1
2022-12-25T08:58:58.425Z,7.3
2022-12-25T08:59:58.415Z,7.3
2022-12-25T09:00:58.421Z,7.3
2022-12-25T09:01:58.537Z,7.3
2022-12-25T09:02:58.525Z,7.3
2022-12-25T09:03:58.454Z,7.3
2022-12-25T09:04:58.435Z,7.2
2022-12-25T09:05:58.452Z,7.2
2022-12-25T09:06:58.427Z,7.2
2022-12-25T09:07:58.447Z,7.2
2022-12-25T09:08:58.473Z,7.2
2022-12-25T09:09:58.426Z,7.2
2022-12-25T09:10:58.455Z,7.2
2022-12-25T09:11:58.495Z,7.2
2022-12-25T09:12:58.457Z,7.2
2022-12-25T09:13:58.480Z,7.2
2022-12-25T09:14:58.482Z,7.3
2022-12-25T09:15:58.493Z,7.3
2022-12-25T09:16:58.476Z,7.3
2022-12-25T09:17:58.454Z,7.3
2022-12-25T09:18:58.465Z,7.3
2022-12-25T09:19:58.467Z,7.3
2022-12-25T09:20:58.482Z,7.3
2022-12-25T09:21:58.518Z,7.5
2022-12-25T09:22:58.531Z,7.5
2022-12-25T09:23:58.546Z,7.5
2022-12-25T09:24:58.570Z,7.5
2022-12-25T09:25:58.547Z,7.5
2022-12-25T09:26:58.594Z,7.5
2022-12-25T09:27:58.571Z,7.5
2022-12-25T09:28:58.535Z,7.7
2022-12-25T09:29:58.537Z,7.7
2022-12-25T09:30:58.537Z,7.7
2022-12-25T09:31:58.526Z,7.7
2022-12-25T09:32:58.547Z,7.7
2022-12-25T09:33:58.539Z,7.7
2022-12-25T09:34:58.554Z,7.8
2022-12-25T09:35:58.528Z,7.8
2022-12-25T09:36:58.543Z,7.8
2022-12-25T09:37:58.534Z,7.8
2022-12-25T09:38:58.572Z,7.8
2022-12-25T09:39:58.553Z,7.8
2022-12-25T09:40:58.819Z,7.8
2022-12-25T09:41:58.530Z,8
2022-12-25T09:42:58.586Z,8
2022-12-25T09:43:58.572Z,8
2022-12-25T09:44:58.542Z,8.1
2022-12-25T09:45:58.549Z,8.1
2022-12-25T09:46:58.658Z,8.1
2022-12-25T09:47:58.539Z,8.1
2022-12-25T09:48:58.565Z,8.5
2022-12-25T09:49:58.552Z,8.5
2022-12-25T09:50:58.537Z,8.5
2022-12-25T09:51:58.523Z,8.9
2022-12-25T09:52:58.536Z,8.9
2022-12-25T09:53:58.579Z,8.9
2022-12-25T09:54:58.549Z,9.7
2022-12-25T09:55:58.553Z,9.7
2022-12-25T09:56:58.569Z,9.7
2022-12-25T09:57:58.679Z,9.7
2022-12-25T09:58:58.614Z,10.4
2022-12-25T09:59:58.662Z,10.4
2022-12-25T10:00:58.621Z,10.4
2022-12-25T10:01:58.728Z,10.8
2022-12-25T10:02:58.849Z,10.8
2022-12-25T10:03:58.700Z,10.8
2022-12-25T10:04:58.625Z,10.9
2022-12-25T10:05:58.633Z,10.9
2022-12-25T10:06:58.655Z,10.9
2022-12-25T10:07:58.640Z,10.9
2022-12-25T10:08:58.674Z,10.7
2022-12-25T10:09:58.645Z,10.7
2022-12-25T10:10:58.631Z,10.7
2022-12-25T10:11:58.655Z,10.5
2022-12-25T10:12:58.639Z,10.5
2022-12-25T10:13:58.667Z,10.5
2022-12-25T10:14:58.656Z,10.3
2022-12-25T10:15:58.705Z,10.3
2022-12-25T10:16:58.640Z,10.3
2022-12-25T10:17:58.637Z,10.3
2022-12-25T10:18:58.708Z,10.3
2022-12-25T10:19:58.634Z,10.3
2022-12-25T10:20:58.664Z,10.3
2022-12-25T10:21:58.644Z,10.4
2022-12-25T10:22:58.651Z,10.4
2022-12-25T10:23:58.713Z,10.4
2022-12-25T10:24:58.627Z,10.5
2022-12-25T10:25:58.655Z,10.5
2022-12-25T10:26:58.694Z,10.5
2022-12-25T10:27:58.676Z,10.5
2022-12-25T10:28:58.665Z,10.5
2022-12-25T10:29:58.636Z,10.5
2022-12-25T10:30:58.842Z,10.5
2022-12-25T10:31:58.692Z,10.5
2022-12-25T10:32:58.694Z,10.5
2022-12-25T10:33:58.675Z,10.5
2022-12-25T10:34:58.697Z,10.6
2022-12-25T10:35:58.666Z,10.6
2022-12-25T10:36:58.663Z,10.6
2022-12-25T10:37:58.646Z,10.6
2022-12-25T10:38:58.703Z,10.7
2022-12-25T10:39:58.645Z,10.7
2022-12-25T10:40:58.654Z,10.7
2022-12-25T10:41:58.880Z,10.9
2022-12-25T10:42:58.661Z,10.9
2022-12-25T10:43:58.696Z,10.9
2022-12-25T10:44:58.642Z,10.9
2022-12-25T10:45:58.767Z,11.1
2022-12-25T10:46:58.756Z,11.1
2022-12-25T10:48:03.493Z,11.1
2022-12-25T10:48:58.736Z,11.3
2022-12-25T10:49:58.757Z,11.3
2022-12-25T10:50:58.777Z,11.3
2022-12-25T10:51:58.756Z,11.5
2022-12-25T10:52:58.747Z,11.5
2022-12-25T10:53:58.754Z,11.5
2022-12-25T10:54:58.782Z,11.5
2022-12-25T10:55:58.765Z,11.6
2022-12-25T10:56:58.766Z,11.6
2022-12-25T10:57:58.785Z,11.6
2022-12-25T10:58:58.761Z,11.7
2022-12-25T10:59:58.755Z,11.7
2022-12-25T11:00:58.775Z,11.7
2022-12-25T11:01:58.792Z,11.8
2022-12-25T11:02:59.081Z,11.8
2022-12-25T11:03:58.828Z,11.8
2022-12-25T11:04:58.731Z,11.8
2022-12-25T11:05:58.780Z,11.8
2022-12-25T11:06:58.753Z,11.8
2022-12-25T11:07:58.757Z,11.8
2022-12-25T11:08:58.789Z,11.9
2022-12-25T11:10:04.577Z,11.9
2022-12-25T11:10:58.785Z,11.9
2022-12-25T11:11:58.766Z,12
2022-12-25T11:12:58.770Z,12
2022-12-25T11:13:58.768Z,12
2022-12-25T11:14:58.757Z,12
2022-12-25T11:15:58.857Z,12
2022-12-25T11:16:58.758Z,12
2022-12-25T11:17:58.759Z,12
2022-12-25T11:18:58.802Z,12.1
2022-12-25T11:19:58.813Z,12.1
2022-12-25T11:20:58.764Z,12.1
2022-12-25T11:21:58.788Z,12.2
2022-12-25T11:22:58.769Z,12.2
2022-12-25T11:23:58.777Z,12.2
2022-12-25T11:24:58.777Z,12.5
2022-12-25T11:25:58.924Z,12.5
2022-12-25T11:26:58.779Z,12.5
2022-12-25T11:27:58.776Z,12.5
2022-12-25T11:28:58.788Z,12.7
2022-12-25T11:29:58.787Z,12.7
2022-12-25T11:30:58.786Z,12.7
2022-12-25T11:31:58.804Z,12.7
2022-12-25T11:32:58.779Z,12.7
2022-12-25T11:33:58.780Z,12.7
2022-12-25T11:34:58.761Z,12.7
2022-12-25T11:35:58.828Z,12.7
2022-12-25T11:36:58.771Z,12.7
2022-12-25T11:37:58.803Z,12.7
2022-12-25T11:38:58.793Z,12.7
2022-12-25T11:39:58.786Z,12.7
2022-12-25T11:40:58.782Z,12.7
2022-12-25T11:41:58.775Z,12.8
2022-12-25T11:43:02.591Z,12.8
2022-12-25T11:43:58.795Z,12.8
2022-12-25T11:44:58.779Z,12.8
2022-12-25T11:45:58.764Z,12.8
2022-12-25T11:46:58.825Z,12.8
2022-12-25T11:47:58.769Z,12.8
2022-12-25T11:48:58.796Z,12.9
2022-12-25T11:50:00.827Z,12.9
2022-12-25T11:50:58.788Z,12.9
2022-12-25T11:51:58.843Z,12.9
2022-12-25T11:52:58.772Z,13
2022-12-25T11:53:58.838Z,13
2022-12-25T11:54:58.817Z,13
2022-12-25T11:55:58.827Z,13
2022-12-25T11:56:58.847Z,13
2022-12-25T11:57:58.828Z,13
2022-12-25T11:58:58.840Z,13
2022-12-25T11:59:58.821Z,13
2022-12-25T12:00:58.840Z,13
2022-12-25T12:01:59.029Z,13
2022-12-25T12:02:59.038Z,12.9
2022-12-25T12:03:58.891Z,12.9
2022-12-25T12:04:58.831Z,12.9
2022-12-25T12:05:58.810Z,12.8
2022-12-25T12:06:58.833Z,12.8
2022-12-25T12:07:58.864Z,12.8
2022-12-25T12:08:58.848Z,12.7
2022-12-25T12:09:58.834Z,12.7
2022-12-25T12:10:58.867Z,12.7
2022-12-25T12:11:58.853Z,12.7
2022-12-25T12:12:58.844Z,12.7
2022-12-25T12:13:58.854Z,12.7
2022-12-25T12:14:58.833Z,12.7
2022-12-25T12:15:58.900Z,12.8
2022-12-25T12:16:58.967Z,12.8
2022-12-25T12:17:58.878Z,12.8
2022-12-25T12:18:58.902Z,13
2022-12-25T12:19:58.962Z,13
2022-12-25T12:20:58.954Z,13
2022-12-25T12:21:58.980Z,13
2022-12-25T12:22:58.986Z,13.1
2022-12-25T12:23:59.060Z,13.1
2022-12-25T12:24:59.002Z,13.1
2022-12-25T12:25:59.012Z,13.2
2022-12-25T12:26:59.074Z,13.2
2022-12-25T12:28:04.740Z,13.2
2022-12-25T12:28:59.058Z,13.2
2022-12-25T12:29:59.051Z,13.2
2022-12-25T12:30:59.083Z,13.2
2022-12-25T12:31:59.126Z,13.2
2022-12-25T12:32:59.078Z,13.2
2022-12-25T12:33:59.085Z,13.2
2022-12-25T12:34:59.085Z,13.2
2022-12-25T12:35:59.088Z,13.3
2022-12-25T12:36:59.116Z,13.3
2022-12-25T12:37:59.320Z,13.3
2022-12-25T12:38:59.111Z,13.4
2022-12-25T12:39:59.136Z,13.4
2022-12-25T12:40:59.066Z,13.4
2022-12-25T12:41:59.097Z,13.4
2022-12-25T12:42:59.087Z,13.5
2022-12-25T12:43:59.090Z,13.5
2022-12-25T12:44:59.126Z,13.5
2022-12-25T12:45:59.123Z,13.5
2022-12-25T12:46:59.111Z,13.5
2022-12-25T12:47:59.140Z,13.5
2022-12-25T12:48:59.109Z,13.5
2022-12-25T12:49:59.091Z,13.5
2022-12-25T12:50:59.087Z,13.5
2022-12-25T12:51:59.130Z,13.5
2022-12-25T12:52:59.121Z,13.5
2022-12-25T12:53:59.109Z,13.5
2022-12-25T12:54:59.125Z,13.5
2022-12-25T12:55:59.141Z,13.6
2022-12-25T12:56:59.111Z,13.6
2022-12-25T12:57:59.111Z,13.6
2022-12-25T12:58:59.096Z,13.7
2022-12-25T13:00:03.242Z,13.7
2022-12-25T13:00:59.167Z,13.7
2022-12-25T13:01:59.358Z,13.7
2022-12-25T13:02:59.208Z,13.9
2022-12-25T13:03:59.242Z,13.9
2022-12-25T13:04:59.134Z,13.9
2022-12-25T13:05:59.199Z,14.2
2022-12-25T13:06:59.143Z,14.2
2022-12-25T13:07:59.155Z,14.2
2022-12-25T13:08:59.190Z,14.5
2022-12-25T13:09:59.173Z,14.5
2022-12-25T13:10:59.155Z,14.5
2022-12-25T13:11:59.188Z,14.5
2022-12-25T13:12:59.136Z,14.7
2022-12-25T13:13:59.211Z,14.7
2022-12-25T13:14:59.182Z,14.7
2022-12-25T13:15:59.223Z,14.9
2022-12-25T13:16:59.256Z,14.9
2022-12-25T13:17:59.169Z,14.9
2022-12-25T13:18:59.189Z,14.9
2022-12-25T13:19:59.192Z,14.9
2022-12-25T13:20:59.160Z,14.9
2022-12-25T13:21:59.192Z,14.9
2022-12-25T13:22:59.174Z,14.9
2022-12-25T13:23:59.213Z,14.9
2022-12-25T13:24:59.209Z,14.9
2022-12-25T13:25:59.208Z,14.9
2022-12-25T13:26:59.188Z,14.9
2022-12-25T13:27:59.249Z,14.9
2022-12-25T13:28:59.201Z,14.9
2022-12-25T13:29:59.203Z,14.8
2022-12-25T13:30:59.176Z,14.8
2022-12-25T13:31:59.285Z,14.8
2022-12-25T13:32:59.226Z,14.8
2022-12-25T13:33:59.208Z,14.8
2022-12-25T13:34:59.209Z,14.8
2022-12-25T13:35:59.220Z,14.8
2022-12-25T13:36:59.205Z,14.8
2022-12-25T13:37:59.219Z,14.8
2022-12-25T13:38:59.224Z,14.8
2022-12-25T13:39:59.243Z,14.9
2022-12-25T13:40:59.197Z,14.9
2022-12-25T13:41:59.211Z,14.9
2022-12-25T13:42:59.227Z,15
2022-12-25T13:43:59.282Z,15
2022-12-25T13:44:59.229Z,15